Misty Dawn — WDC8124 — position and weather

sailwx.info

Track history (hours):
 
Tides and Currents Weather Stations Pressure Air Temp Water Temp Dewpoint Dewpoint Depression Visibility Wind Speed Wind Dir Waves Ship Positions

Misty Dawn

Owner: Katahdin, Inc., Seattle, WA. More information available from US FCC via Universal Licensing System and Coast Guard Vessel Documentation Center.

Last reported at 2015-Jan-19 18:30 UTC. Time now 2015-Mar-30 07:09 UTC.
Position N 49°03' W 126°30'.
Warning: this ship's position is months out of date.

Date/timePositionNaut miles runAvg speedWind from/ knotsBaromVisibWave heightAir tempDewpointWater temp
2015-Jan-19 18:30N 49°03' W 126°30'9 9.8
2015-Jan-19 17:33N 48°59' W 126°18'1010.0
2015-Jan-19 16:33N 48°54' W 126°05'10 9.8
2015-Jan-19 15:34N 48°49' W 125°52'10 9.7
2015-Jan-19 14:34N 48°45' W 125°39'1 9.8
2015-Jan-19 14:28N 48°44' W 125°38'8 8.5
2015-Jan-19 13:33N 48°42' W 125°27'10 9.5
2015-Jan-19 12:34N 48°38' W 125°13'9 9.3
2015-Jan-19 11:34N 48°34' W 125°01'9 9.1
2015-Jan-19 10:33N 48°31' W 124°48'8 8.2
2015-Jan-19 09:33N 48°26' W 124°38'3 3.2
2015-Jan-19 08:33N 48°23' W 124°35'2 1.7
2015-Jan-19 07:34N 48°22' W 124°37'0 0.0
2015-Jan-19 06:34N 48°22' W 124°37'0 0.0
2015-Jan-19 05:33N 48°22' W 124°37'0 0.0
2015-Jan-19 04:33N 48°22' W 124°37'0 0.0
2015-Jan-19 03:33N 48°22' W 124°37'0 0.0
2015-Jan-19 02:34N 48°22' W 124°37'0 0.0
2015-Jan-19 01:34N 48°22' W 124°37'0 0.0
2015-Jan-19 00:33N 48°22' W 124°37'0 0.0
2015-Jan-18 23:33N 48°22' W 124°37'0 0.0
2015-Jan-18 22:34N 48°22' W 124°37'0 0.0
2015-Jan-18 21:34N 48°22' W 124°37'0 0.0
2015-Jan-18 20:33N 48°22' W 124°37'0 0.0
2015-Jan-18 19:34N 48°22' W 124°37'0 0.0
2015-Jan-18 18:34N 48°22' W 124°37'0 0.0
2015-Jan-18 17:33N 48°22' W 124°37'0 0.0
2015-Jan-18 16:34N 48°22' W 124°37'0 0.0
2015-Jan-18 15:34N 48°22' W 124°37'0 0.0
2015-Jan-18 14:34N 48°22' W 124°37'0 0.0
2015-Jan-18 13:33N 48°22' W 124°37'0 0.0
2015-Jan-18 12:34N 48°22' W 124°37'0 0.0
2015-Jan-18 11:34N 48°22' W 124°37'0 0.0
2015-Jan-18 10:33N 48°22' W 124°37'0 0.0
2015-Jan-18 09:34N 48°22' W 124°37'0 0.0
2015-Jan-18 08:34N 48°22' W 124°37'0 0.0
2015-Jan-18 07:34N 48°22' W 124°37'0 0.0
2015-Jan-18 06:34N 48°22' W 124°37'0 0.0
2015-Jan-18 05:34N 48°22' W 124°37'0 0.0
2015-Jan-18 04:33N 48°22' W 124°37'0 0.0
2015-Jan-18 03:34N 48°22' W 124°37'0 0.0
2015-Jan-18 02:33N 48°22' W 124°37'0 0.0
2015-Jan-18 01:33N 48°22' W 124°37'0 0.0
2015-Jan-18 00:33N 48°22' W 124°37'0 0.0
2015-Jan-17 23:33N 48°22' W 124°37'0 0.0
2015-Jan-17 22:34N 48°22' W 124°37'0 0.0
2015-Jan-17 21:34N 48°22' W 124°37'0 0.0
2015-Jan-17 20:33N 48°22' W 124°37'0 0.0
2015-Jan-17 19:34N 48°22' W 124°37'1 1.3
2015-Jan-17 18:34N 48°23' W 124°35'10 9.9
2015-Jan-17 17:33N 48°19' W 124°21'1010.0
2015-Jan-17 16:33N 48°15' W 124°08'9 9.2
2015-Jan-17 15:33N 48°12' W 123°55'3 9.1
2015-Jan-17 15:11N 48°11' W 123°49'6 9.6
2015-Jan-17 14:33N 48°11' W 123°40'9 9.7
2015-Jan-17 13:34N 48°10' W 123°26'1010.0
2015-Jan-17 12:32N 48°11' W 123°11'1010.0
2015-Jan-17 11:33N 48°11' W 122°56'10 9.5
2015-Jan-17 10:33N 48°08' W 122°43'0 6.6
2015-Jan-17 10:32N 48°07' W 122°42'9 9.3
2015-Jan-17 09:33N 47°59' W 122°37'6 7.6
2015-Jan-17 08:45N 47°55' W 122°31'2 9.6
2015-Jan-17 08:33N 47°54' W 122°29'1 8.6
2015-Jan-17 08:29N 47°53' W 122°28'8 9.2
2015-Jan-17 07:33N 47°45' W 122°25'1 8.4
2015-Jan-17 07:30N 47°44' W 122°25'3 7.7
2015-Jan-17 07:05N 47°41' W 122°25'2 2.9
2015-Jan-17 06:33N 47°40' W 122°24'1 0.8
2015-Jan-17 05:34N 47°40' W 122°23'0 0.0
2015-Jan-17 05:29N 47°40' W 122°23'0 0.0
2015-Jan-17 04:34N 47°40' W 122°23'0 0.0
2015-Jan-17 04:29N 47°40' W 122°23'0 0.0
2015-Jan-17 03:33N 47°40' W 122°23'0 0.0
2015-Jan-17 03:29N 47°40' W 122°23'0 0.0
2015-Jan-17 02:33N 47°40' W 122°23'0 0.0
2015-Jan-17 02:29N 47°40' W 122°23'0 0.0
2015-Jan-17 01:33N 47°40' W 122°23'0 0.0
2015-Jan-17 01:29N 47°40' W 122°23'0 0.0
2015-Jan-17 00:24N 47°40' W 122°23'0 0.0
2015-Jan-17 00:18N 47°40' W 122°23'1 0.9
2015-Jan-16 23:34N 47°40' W 122°23'0 0.8
2015-Jan-16 23:33N 47°40' W 122°23'0 0.0
2015-Jan-16 22:34N 47°40' W 122°23'0 1.3
2015-Jan-16 22:33N 47°40' W 122°23'1 0.6
2015-Jan-16 21:34N 47°40' W 122°23'0 1.7
2015-Jan-16 21:33N 47°40' W 122°23'0 0.0
2015-Jan-16 20:34N 47°40' W 122°23'0 0.8
2015-Jan-16 20:33N 47°40' W 122°23'0 0.0
2015-Jan-16 19:33N 47°40' W 122°23'0 1.3
2015-Jan-16 19:33N 47°40' W 122°23'0 0.0
2015-Jan-16 18:33N 47°40' W 122°23'0 0.0
2015-Jan-16 18:33N 47°40' W 122°23'0 0.0
2015-Jan-16 17:33N 47°40' W 122°23'0 0.0
2015-Jan-16 17:33N 47°40' W 122°23'0 0.0
2015-Jan-16 16:33N 47°40' W 122°23'0 0.0
2015-Jan-16 16:33N 47°40' W 122°23'0 0.0
2015-Jan-16 15:34N 47°40' W 122°23'0 0.3
2015-Jan-16 15:32N 47°40' W 122°23'0 0.0
2015-Jan-16 14:34N 47°40' W 122°23'0 0.0
2015-Jan-16 14:32N 47°40' W 122°23'0 0.0
2015-Jan-16 13:34N 47°40' W 122°23'0 0.0
2015-Jan-16 13:32N 47°40' W 122°23'0 0.0
2015-Jan-16 12:34N 47°40' W 122°23'0 0.3
2015-Jan-16 12:32N 47°40' W 122°23'0 0.0
2015-Jan-16 11:33N 47°40' W 122°23'0 0.1
2015-Jan-16 11:26N 47°40' W 122°23'0 0.0
2015-Jan-16 10:33N 47°40' W 122°23'0 0.2
2015-Jan-16 10:32N 47°40' W 122°23'0 0.0
2015-Jan-16 09:34N 47°40' W 122°23'0 0.0
2015-Jan-16 09:31N 47°40' W 122°23'0 0.0
2015-Jan-16 08:34N 47°40' W 122°23'0 0.0
2015-Jan-16 08:31N 47°40' W 122°23'0 0.0
2015-Jan-16 07:34N 47°40' W 122°23'0 0.1
2015-Jan-16 07:31N 47°40' W 122°23'0 0.0
2015-Jan-16 07:01N 47°40' W 122°23'0 0.0
2015-Jan-16 06:34N 47°40' W 122°23'0 0.0
2015-Jan-16 05:33N 47°40' W 122°23'0 0.0
2015-Jan-16 05:31N 47°40' W 122°23'0 0.0
2015-Jan-16 04:33N 47°40' W 122°23'0 0.0
2015-Jan-16 04:31N 47°40' W 122°23'0 0.0
2015-Jan-16 03:34N 47°40' W 122°23'0 0.0
2015-Jan-16 03:31N 47°40' W 122°23'0 0.0
2015-Jan-16 02:33N 47°40' W 122°23'0 0.0
2015-Jan-16 02:30N 47°40' W 122°23'0 0.0
2015-Jan-16 01:33N 47°40' W 122°23'0 0.0
2015-Jan-16 01:25N 47°40' W 122°23'0 0.0
2015-Jan-16 00:33N 47°40' W 122°23'0 0.0
2015-Jan-16 00:30N 47°40' W 122°23'0 0.0
2015-Jan-15 23:33N 47°40' W 122°23'0 0.0
2015-Jan-15 23:30N 47°40' W 122°23'0 0.0
2015-Jan-15 22:34N 47°40' W 122°23'0 0.0
2015-Jan-15 22:30N 47°40' W 122°23'0 0.0
2015-Jan-15 21:35N 47°40' W 122°23'0 0.0
2015-Jan-15 21:34N 47°40' W 122°23'0 0.0
2015-Jan-15 20:35N 47°40' W 122°23'0 0.3
2015-Jan-15 20:34N 47°40' W 122°23'0 0.0
2015-Jan-15 19:34N 47°40' W 122°23'0 0.1
2015-Jan-15 19:29N 47°40' W 122°23'0 0.0
2015-Jan-15 18:33N 47°40' W 122°23'0 0.0
2015-Jan-15 18:29N 47°40' W 122°23'0 0.0
2015-Jan-15 17:34N 47°40' W 122°23'0 3.1
2015-Jan-15 17:34N 47°40' W 122°23'0 0.0
2015-Jan-15 16:33N 47°40' W 122°23'0 0.0
2015-Jan-15 16:29N 47°40' W 122°23'0 0.0
2015-Jan-15 15:34N 47°40' W 122°23'0 0.0
2015-Jan-15 15:33N 47°40' W 122°23'0 0.0
2015-Jan-15 14:32N 47°40' W 122°23'0 0.6
2015-Jan-15 14:28N 47°40' W 122°23'0 0.0
2015-Jan-15 13:33N 47°40' W 122°23'0 0.0
2015-Jan-15 13:28N 47°40' W 122°23'0 0.0
2015-Jan-15 12:34N 47°40' W 122°23'0 0.0
2015-Jan-15 12:33N 47°40' W 122°23'0 0.0
2015-Jan-15 11:33N 47°40' W 122°23'0 0.0
2015-Jan-15 11:33N 47°40' W 122°23'0 0.0
2015-Jan-15 10:33N 47°40' W 122°23'0 0.0
2015-Jan-15 10:33N 47°40' W 122°23'0 0.0
2015-Jan-15 09:33N 47°40' W 122°23'0 0.9
2015-Jan-15 09:33N 47°40' W 122°23'0 0.0
2015-Jan-15 08:33N 47°40' W 122°23'0 0.4
2015-Jan-15 08:32N 47°40' W 122°23'0 0.0
2015-Jan-15 07:34N 47°40' W 122°23'0 0.2
2015-Jan-15 07:32N 47°40' W 122°23'0 0.0
2015-Jan-15 06:57N 47°40' W 122°23'0 0.0
2015-Jan-15 06:34N 47°40' W 122°23'0 0.0
2015-Jan-15 05:31N 47°40' W 122°23'0 0.0
2015-Jan-15 05:06N 47°40' W 122°23'0 0.0
2015-Jan-15 04:32N 47°40' W 122°23'0 0.0
2015-Jan-15 04:32N 47°40' W 122°23'0 0.0
2015-Jan-15 03:33N 47°40' W 122°23'0 0.2
2015-Jan-15 03:31N 47°40' W 122°23'0 0.0
2015-Jan-15 02:33N 47°40' W 122°23'0 0.0
2015-Jan-15 02:31N 47°40' W 122°23'0 0.0
2015-Jan-15 01:33N 47°40' W 122°23'0 0.2
2015-Jan-15 01:31N 47°40' W 122°23'0 0.0
2015-Jan-15 00:33N 47°40' W 122°23'0 0.0
2015-Jan-15 00:31N 47°40' W 122°23'0 0.0
2015-Jan-14 23:34N 47°40' W 122°23'0 0.0
2015-Jan-14 23:31N 47°40' W 122°23'0 0.0
2015-Jan-14 22:33N 47°40' W 122°23'0 0.1
2015-Jan-14 22:30N 47°40' W 122°23'0 0.0
2015-Jan-14 21:33N 47°40' W 122°23'0 0.0
2015-Jan-14 21:25N 47°40' W 122°23'0 0.0
2015-Jan-14 20:34N 47°40' W 122°23'0 0.1
2015-Jan-14 20:30N 47°40' W 122°23'0 0.0
2015-Jan-14 19:35N 47°40' W 122°23'0 0.2
2015-Jan-14 19:33N 47°40' W 122°23'0 0.0
2015-Jan-14 18:35N 47°40' W 122°23'0 0.0
2015-Jan-14 18:34N 47°40' W 122°23'0 0.0
2015-Jan-14 17:33N 47°40' W 122°23'0 0.1
2015-Jan-14 17:29N 47°40' W 122°23'0 0.0
2015-Jan-14 16:34N 47°40' W 122°23'0 0.0
2015-Jan-14 16:29N 47°40' W 122°23'0 0.0
2015-Jan-14 15:34N 47°40' W 122°23'0 0.0
2015-Jan-14 15:29N 47°40' W 122°23'0 0.0
2015-Jan-14 14:34N 47°40' W 122°23'0 0.0
2015-Jan-14 13:33N 47°40' W 122°23'0 0.0
2015-Jan-14 12:55N 47°40' W 122°23'0 0.0
2015-Jan-14 12:34N 47°40' W 122°23'0 0.1
2015-Jan-14 12:30N 47°40' W 122°23'0 0.0
2015-Jan-14 11:33N 47°40' W 122°23'0 0.0
2015-Jan-14 11:30N 47°40' W 122°23'0 0.0
2015-Jan-14 10:34N 47°40' W 122°23'0 0.0
2015-Jan-14 10:30N 47°40' W 122°23'0 0.0
2015-Jan-14 09:34N 47°40' W 122°23'0 0.0
2015-Jan-14 09:30N 47°40' W 122°23'0 0.0
2015-Jan-14 08:34N 47°40' W 122°23'0 0.0
2015-Jan-14 08:30N 47°40' W 122°23'0 0.0
2015-Jan-14 07:33N 47°40' W 122°23'0 0.1
2015-Jan-14 07:29N 47°40' W 122°23'0 0.0
2015-Jan-14 06:59N 47°40' W 122°23'0 0.0
2015-Jan-14 06:33N 47°40' W 122°23'0 0.0
2015-Jan-14 05:33N 47°40' W 122°23'0 0.0
2015-Jan-14 04:33N 47°40' W 122°23'0 0.0
2015-Jan-14 04:17N 47°40' W 122°23'0 0.0
2015-Jan-14 03:34N 47°40' W 122°23'0 0.0
2015-Jan-14 03:32N 47°40' W 122°23'0 0.0
2015-Jan-14 02:33N 47°40' W 122°23'0 0.2
2015-Jan-14 02:31N 47°40' W 122°23'0 0.0
2015-Jan-14 01:33N 47°40' W 122°23'0 0.2
2015-Jan-14 01:31N 47°40' W 122°23'0 0.0
2015-Jan-14 00:33N 47°40' W 122°23'0 0.0
2015-Jan-14 00:31N 47°40' W 122°23'0 0.0
2015-Jan-13 23:34N 47°40' W 122°23'0 0.0
2015-Jan-13 23:26N 47°40' W 122°23'0 0.0
2015-Jan-13 22:33N 47°40' W 122°23'0 0.2
2015-Jan-13 22:31N 47°40' W 122°23'0 0.0
2015-Jan-13 21:33N 47°40' W 122°23'0 0.0
2015-Jan-13 21:25N 47°40' W 122°23'0 0.0
2015-Jan-13 20:33N 47°40' W 122°23'0 0.0
2015-Jan-13 20:30N 47°40' W 122°23'0 0.0
2015-Jan-13 19:33N 47°40' W 122°23'0 0.0
2015-Jan-13 19:30N 47°40' W 122°23'0 0.0
2015-Jan-13 18:33N 47°40' W 122°23'0 0.1
2015-Jan-13 18:30N 47°40' W 122°23'0 0.0
2015-Jan-13 17:34N 47°40' W 122°23'0 0.1
2015-Jan-13 17:29N 47°40' W 122°23'  
Track history (hours):
 
Tides and Currents Weather Stations Pressure Air Temp Water Temp Dewpoint Dewpoint Depression Visibility Wind Speed Wind Dir Waves Ship Positions

Misty Dawn

Owner: Katahdin, Inc., Seattle, WA. More information available from US FCC via Universal Licensing System and Coast Guard Vessel Documentation Center.

Last reported at 2015-Jan-19 18:30 UTC. Time now 2015-Mar-30 07:09 UTC.
Position N 49°03' W 126°30'.
Warning: this ship's position is months out of date.

Date/timePositionNaut miles runAvg speedWind from/ knotsBaromVisibWave heightAir tempDewpointWater temp
2015-Jan-19 18:30N 49°03' W 126°30'9 9.8
2015-Jan-19 17:33N 48°59' W 126°18'1010.0
2015-Jan-19 16:33N 48°54' W 126°05'10 9.8
2015-Jan-19 15:34N 48°49' W 125°52'10 9.7
2015-Jan-19 14:34N 48°45' W 125°39'1 9.8
2015-Jan-19 14:28N 48°44' W 125°38'8 8.5
2015-Jan-19 13:33N 48°42' W 125°27'10 9.5
2015-Jan-19 12:34N 48°38' W 125°13'9 9.3
2015-Jan-19 11:34N 48°34' W 125°01'9 9.1
2015-Jan-19 10:33N 48°31' W 124°48'8 8.2
2015-Jan-19 09:33N 48°26' W 124°38'3 3.2
2015-Jan-19 08:33N 48°23' W 124°35'2 1.7
2015-Jan-19 07:34N 48°22' W 124°37'0 0.0
2015-Jan-19 06:34N 48°22' W 124°37'0 0.0
2015-Jan-19 05:33N 48°22' W 124°37'0 0.0
2015-Jan-19 04:33N 48°22' W 124°37'0 0.0
2015-Jan-19 03:33N 48°22' W 124°37'0 0.0
2015-Jan-19 02:34N 48°22' W 124°37'0 0.0
2015-Jan-19 01:34N 48°22' W 124°37'0 0.0
2015-Jan-19 00:33N 48°22' W 124°37'0 0.0
2015-Jan-18 23:33N 48°22' W 124°37'0 0.0
2015-Jan-18 22:34N 48°22' W 124°37'0 0.0
2015-Jan-18 21:34N 48°22' W 124°37'0 0.0
2015-Jan-18 20:33N 48°22' W 124°37'0 0.0
2015-Jan-18 19:34N 48°22' W 124°37'0 0.0
2015-Jan-18 18:34N 48°22' W 124°37'0 0.0
2015-Jan-18 17:33N 48°22' W 124°37'0 0.0
2015-Jan-18 16:34N 48°22' W 124°37'0 0.0
2015-Jan-18 15:34N 48°22' W 124°37'0 0.0
2015-Jan-18 14:34N 48°22' W 124°37'0 0.0
2015-Jan-18 13:33N 48°22' W 124°37'0 0.0
2015-Jan-18 12:34N 48°22' W 124°37'0 0.0
2015-Jan-18 11:34N 48°22' W 124°37'0 0.0
2015-Jan-18 10:33N 48°22' W 124°37'0 0.0
2015-Jan-18 09:34N 48°22' W 124°37'0 0.0
2015-Jan-18 08:34N 48°22' W 124°37'0 0.0
2015-Jan-18 07:34N 48°22' W 124°37'0 0.0
2015-Jan-18 06:34N 48°22' W 124°37'0 0.0
2015-Jan-18 05:34N 48°22' W 124°37'0 0.0
2015-Jan-18 04:33N 48°22' W 124°37'0 0.0
2015-Jan-18 03:34N 48°22' W 124°37'0 0.0
2015-Jan-18 02:33N 48°22' W 124°37'0 0.0
2015-Jan-18 01:33N 48°22' W 124°37'0 0.0
2015-Jan-18 00:33N 48°22' W 124°37'0 0.0
2015-Jan-17 23:33N 48°22' W 124°37'0 0.0
2015-Jan-17 22:34N 48°22' W 124°37'0 0.0
2015-Jan-17 21:34N 48°22' W 124°37'0 0.0
2015-Jan-17 20:33N 48°22' W 124°37'0 0.0
2015-Jan-17 19:34N 48°22' W 124°37'1 1.3
2015-Jan-17 18:34N 48°23' W 124°35'10 9.9
2015-Jan-17 17:33N 48°19' W 124°21'1010.0
2015-Jan-17 16:33N 48°15' W 124°08'9 9.2
2015-Jan-17 15:33N 48°12' W 123°55'3 9.1
2015-Jan-17 15:11N 48°11' W 123°49'6 9.6
2015-Jan-17 14:33N 48°11' W 123°40'9 9.7
2015-Jan-17 13:34N 48°10' W 123°26'1010.0
2015-Jan-17 12:32N 48°11' W 123°11'1010.0
2015-Jan-17 11:33N 48°11' W 122°56'10 9.5
2015-Jan-17 10:33N 48°08' W 122°43'0 6.6
2015-Jan-17 10:32N 48°07' W 122°42'9 9.3
2015-Jan-17 09:33N 47°59' W 122°37'6 7.6
2015-Jan-17 08:45N 47°55' W 122°31'2 9.6
2015-Jan-17 08:33N 47°54' W 122°29'1 8.6
2015-Jan-17 08:29N 47°53' W 122°28'8 9.2
2015-Jan-17 07:33N 47°45' W 122°25'1 8.4
2015-Jan-17 07:30N 47°44' W 122°25'3 7.7
2015-Jan-17 07:05N 47°41' W 122°25'2 2.9
2015-Jan-17 06:33N 47°40' W 122°24'1 0.8
2015-Jan-17 05:34N 47°40' W 122°23'0 0.0
2015-Jan-17 05:29N 47°40' W 122°23'0 0.0
2015-Jan-17 04:34N 47°40' W 122°23'0 0.0
2015-Jan-17 04:29N 47°40' W 122°23'0 0.0
2015-Jan-17 03:33N 47°40' W 122°23'0 0.0
2015-Jan-17 03:29N 47°40' W 122°23'0 0.0
2015-Jan-17 02:33N 47°40' W 122°23'0 0.0
2015-Jan-17 02:29N 47°40' W 122°23'0 0.0
2015-Jan-17 01:33N 47°40' W 122°23'0 0.0
2015-Jan-17 01:29N 47°40' W 122°23'0 0.0
2015-Jan-17 00:24N 47°40' W 122°23'0 0.0
2015-Jan-17 00:18N 47°40' W 122°23'1 0.9
2015-Jan-16 23:34N 47°40' W 122°23'0 0.8
2015-Jan-16 23:33N 47°40' W 122°23'0 0.0
2015-Jan-16 22:34N 47°40' W 122°23'0 1.3
2015-Jan-16 22:33N 47°40' W 122°23'1 0.6
2015-Jan-16 21:34N 47°40' W 122°23'0 1.7
2015-Jan-16 21:33N 47°40' W 122°23'0 0.0
2015-Jan-16 20:34N 47°40' W 122°23'0 0.8
2015-Jan-16 20:33N 47°40' W 122°23'0 0.0
2015-Jan-16 19:33N 47°40' W 122°23'0 1.3
2015-Jan-16 19:33N 47°40' W 122°23'0 0.0
2015-Jan-16 18:33N 47°40' W 122°23'0 0.0
2015-Jan-16 18:33N 47°40' W 122°23'0 0.0
2015-Jan-16 17:33N 47°40' W 122°23'0 0.0
2015-Jan-16 17:33N 47°40' W 122°23'0 0.0
2015-Jan-16 16:33N 47°40' W 122°23'0 0.0
2015-Jan-16 16:33N 47°40' W 122°23'0 0.0
2015-Jan-16 15:34N 47°40' W 122°23'0 0.3
2015-Jan-16 15:32N 47°40' W 122°23'0 0.0
2015-Jan-16 14:34N 47°40' W 122°23'0 0.0
2015-Jan-16 14:32N 47°40' W 122°23'0 0.0
2015-Jan-16 13:34N 47°40' W 122°23'0 0.0
2015-Jan-16 13:32N 47°40' W 122°23'0 0.0
2015-Jan-16 12:34N 47°40' W 122°23'0 0.3
2015-Jan-16 12:32N 47°40' W 122°23'0 0.0
2015-Jan-16 11:33N 47°40' W 122°23'0 0.1
2015-Jan-16 11:26N 47°40' W 122°23'0 0.0
2015-Jan-16 10:33N 47°40' W 122°23'0 0.2
2015-Jan-16 10:32N 47°40' W 122°23'0 0.0
2015-Jan-16 09:34N 47°40' W 122°23'0 0.0
2015-Jan-16 09:31N 47°40' W 122°23'0 0.0
2015-Jan-16 08:34N 47°40' W 122°23'0 0.0
2015-Jan-16 08:31N 47°40' W 122°23'0 0.0
2015-Jan-16 07:34N 47°40' W 122°23'0 0.1
2015-Jan-16 07:31N 47°40' W 122°23'0 0.0
2015-Jan-16 07:01N 47°40' W 122°23'0 0.0
2015-Jan-16 06:34N 47°40' W 122°23'0 0.0
2015-Jan-16 05:33N 47°40' W 122°23'0 0.0
2015-Jan-16 05:31N 47°40' W 122°23'0 0.0
2015-Jan-16 04:33N 47°40' W 122°23'0 0.0
2015-Jan-16 04:31N 47°40' W 122°23'0 0.0
2015-Jan-16 03:34N 47°40' W 122°23'0 0.0
2015-Jan-16 03:31N 47°40' W 122°23'0 0.0
2015-Jan-16 02:33N 47°40' W 122°23'0 0.0
2015-Jan-16 02:30N 47°40' W 122°23'0 0.0
2015-Jan-16 01:33N 47°40' W 122°23'0 0.0
2015-Jan-16 01:25N 47°40' W 122°23'0 0.0
2015-Jan-16 00:33N 47°40' W 122°23'0 0.0
2015-Jan-16 00:30N 47°40' W 122°23'0 0.0
2015-Jan-15 23:33N 47°40' W 122°23'0 0.0
2015-Jan-15 23:30N 47°40' W 122°23'0 0.0
2015-Jan-15 22:34N 47°40' W 122°23'0 0.0
2015-Jan-15 22:30N 47°40' W 122°23'0 0.0
2015-Jan-15 21:35N 47°40' W 122°23'0 0.0
2015-Jan-15 21:34N 47°40' W 122°23'0 0.0
2015-Jan-15 20:35N 47°40' W 122°23'0 0.3
2015-Jan-15 20:34N 47°40' W 122°23'0 0.0
2015-Jan-15 19:34N 47°40' W 122°23'0 0.1
2015-Jan-15 19:29N 47°40' W 122°23'0 0.0
2015-Jan-15 18:33N 47°40' W 122°23'0 0.0
2015-Jan-15 18:29N 47°40' W 122°23'0 0.0
2015-Jan-15 17:34N 47°40' W 122°23'0 3.1
2015-Jan-15 17:34N 47°40' W 122°23'0 0.0
2015-Jan-15 16:33N 47°40' W 122°23'0 0.0
2015-Jan-15 16:29N 47°40' W 122°23'0 0.0
2015-Jan-15 15:34N 47°40' W 122°23'0 0.0
2015-Jan-15 15:33N 47°40' W 122°23'0 0.0
2015-Jan-15 14:32N 47°40' W 122°23'0 0.6
2015-Jan-15 14:28N 47°40' W 122°23'0 0.0
2015-Jan-15 13:33N 47°40' W 122°23'0 0.0
2015-Jan-15 13:28N 47°40' W 122°23'0 0.0
2015-Jan-15 12:34N 47°40' W 122°23'0 0.0
2015-Jan-15 12:33N 47°40' W 122°23'0 0.0
2015-Jan-15 11:33N 47°40' W 122°23'0 0.0
2015-Jan-15 11:33N 47°40' W 122°23'0 0.0
2015-Jan-15 10:33N 47°40' W 122°23'0 0.0
2015-Jan-15 10:33N 47°40' W 122°23'0 0.0
2015-Jan-15 09:33N 47°40' W 122°23'0 0.9
2015-Jan-15 09:33N 47°40' W 122°23'0 0.0
2015-Jan-15 08:33N 47°40' W 122°23'0 0.4
2015-Jan-15 08:32N 47°40' W 122°23'0 0.0
2015-Jan-15 07:34N 47°40' W 122°23'0 0.2
2015-Jan-15 07:32N 47°40' W 122°23'0 0.0
2015-Jan-15 06:57N 47°40' W 122°23'0 0.0
2015-Jan-15 06:34N 47°40' W 122°23'0 0.0
2015-Jan-15 05:31N 47°40' W 122°23'0 0.0
2015-Jan-15 05:06N 47°40' W 122°23'0 0.0
2015-Jan-15 04:32N 47°40' W 122°23'0 0.0
2015-Jan-15 04:32N 47°40' W 122°23'0 0.0
2015-Jan-15 03:33N 47°40' W 122°23'0 0.2
2015-Jan-15 03:31N 47°40' W 122°23'0 0.0
2015-Jan-15 02:33N 47°40' W 122°23'0 0.0
2015-Jan-15 02:31N 47°40' W 122°23'0 0.0
2015-Jan-15 01:33N 47°40' W 122°23'0 0.2
2015-Jan-15 01:31N 47°40' W 122°23'0 0.0
2015-Jan-15 00:33N 47°40' W 122°23'0 0.0
2015-Jan-15 00:31N 47°40' W 122°23'0 0.0
2015-Jan-14 23:34N 47°40' W 122°23'0 0.0
2015-Jan-14 23:31N 47°40' W 122°23'0 0.0
2015-Jan-14 22:33N 47°40' W 122°23'0 0.1
2015-Jan-14 22:30N 47°40' W 122°23'0 0.0
2015-Jan-14 21:33N 47°40' W 122°23'0 0.0
2015-Jan-14 21:25N 47°40' W 122°23'0 0.0
2015-Jan-14 20:34N 47°40' W 122°23'0 0.1
2015-Jan-14 20:30N 47°40' W 122°23'0 0.0
2015-Jan-14 19:35N 47°40' W 122°23'0 0.2
2015-Jan-14 19:33N 47°40' W 122°23'0 0.0
2015-Jan-14 18:35N 47°40' W 122°23'0 0.0
2015-Jan-14 18:34N 47°40' W 122°23'0 0.0
2015-Jan-14 17:33N 47°40' W 122°23'0 0.1
2015-Jan-14 17:29N 47°40' W 122°23'0 0.0
2015-Jan-14 16:34N 47°40' W 122°23'0 0.0
2015-Jan-14 16:29N 47°40' W 122°23'0 0.0
2015-Jan-14 15:34N 47°40' W 122°23'0 0.0
2015-Jan-14 15:29N 47°40' W 122°23'0 0.0
2015-Jan-14 14:34N 47°40' W 122°23'0 0.0
2015-Jan-14 13:33N 47°40' W 122°23'0 0.0
2015-Jan-14 12:55N 47°40' W 122°23'0 0.0
2015-Jan-14 12:34N 47°40' W 122°23'0 0.1
2015-Jan-14 12:30N 47°40' W 122°23'0 0.0
2015-Jan-14 11:33N 47°40' W 122°23'0 0.0
2015-Jan-14 11:30N 47°40' W 122°23'0 0.0
2015-Jan-14 10:34N 47°40' W 122°23'0 0.0
2015-Jan-14 10:30N 47°40' W 122°23'0 0.0
2015-Jan-14 09:34N 47°40' W 122°23'0 0.0
2015-Jan-14 09:30N 47°40' W 122°23'0 0.0
2015-Jan-14 08:34N 47°40' W 122°23'0 0.0
2015-Jan-14 08:30N 47°40' W 122°23'0 0.0
2015-Jan-14 07:33N 47°40' W 122°23'0 0.1
2015-Jan-14 07:29N 47°40' W 122°23'0 0.0
2015-Jan-14 06:59N 47°40' W 122°23'0 0.0
2015-Jan-14 06:33N 47°40' W 122°23'0 0.0
2015-Jan-14 05:33N 47°40' W 122°23'0 0.0
2015-Jan-14 04:33N 47°40' W 122°23'0 0.0
2015-Jan-14 04:17N 47°40' W 122°23'0 0.0
2015-Jan-14 03:34N 47°40' W 122°23'0 0.0
2015-Jan-14 03:32N 47°40' W 122°23'0 0.0
2015-Jan-14 02:33N 47°40' W 122°23'0 0.2
2015-Jan-14 02:31N 47°40' W 122°23'0 0.0
2015-Jan-14 01:33N 47°40' W 122°23'0 0.2
2015-Jan-14 01:31N 47°40' W 122°23'0 0.0
2015-Jan-14 00:33N 47°40' W 122°23'0 0.0
2015-Jan-14 00:31N 47°40' W 122°23'0 0.0
2015-Jan-13 23:34N 47°40' W 122°23'0 0.0
2015-Jan-13 23:26N 47°40' W 122°23'0 0.0
2015-Jan-13 22:33N 47°40' W 122°23'0 0.2
2015-Jan-13 22:31N 47°40' W 122°23'0 0.0
2015-Jan-13 21:33N 47°40' W 122°23'0 0.0
2015-Jan-13 21:25N 47°40' W 122°23'0 0.0
2015-Jan-13 20:33N 47°40' W 122°23'0 0.0
2015-Jan-13 20:30N 47°40' W 122°23'0 0.0
2015-Jan-13 19:33N 47°40' W 122°23'0 0.0
2015-Jan-13 19:30N 47°40' W 122°23'0 0.0
2015-Jan-13 18:33N 47°40' W 122°23'0 0.1
2015-Jan-13 18:30N 47°40' W 122°23'0 0.0
2015-Jan-13 17:34N 47°40' W 122°23'0 0.1
2015-Jan-13 17:29N 47°40' W 122°23'  

Dump ship's entire track history